createdAt,value
2022-10-25T00:01:23.619Z,98855.94
2022-10-25T00:03:50.141Z,98861.81
2022-10-25T00:06:17.124Z,98851.09
2022-10-25T00:08:43.897Z,98863.97
2022-10-25T00:11:18.711Z,98861.81
2022-10-25T00:13:45.164Z,98861.13
2022-10-25T00:16:17.308Z,98862.63
2022-10-25T00:18:44.061Z,98857.59
2022-10-25T00:21:10.474Z,98854.44
2022-10-25T00:23:36.987Z,98847.75
2022-10-25T00:26:04.636Z,98847.75
2022-10-25T00:28:31.305Z,98857.31
2022-10-25T00:31:01.282Z,98858.50
2022-10-25T00:33:31.054Z,98859.84
2022-10-25T00:36:05.961Z,98858.94
2022-10-25T00:38:32.455Z,98863.00
2022-10-25T00:40:59.178Z,98855.94
2022-10-25T00:43:38.601Z,98861.66
2022-10-25T00:46:18.344Z,98857.00
2022-10-25T00:48:55.708Z,98866.38
2022-10-25T00:51:25.853Z,98859.88
2022-10-25T00:53:52.790Z,98865.22
2022-10-25T00:56:25.448Z,98860.88
2022-10-25T00:58:55.328Z,98864.72
2022-10-25T01:01:22.229Z,98861.03
2022-10-25T01:03:52.352Z,98861.22
2022-10-25T01:06:25.068Z,98864.25
2022-10-25T01:08:52.655Z,98854.69
2022-10-25T01:11:19.964Z,98860.38
2022-10-25T01:13:47.638Z,98857.03
2022-10-25T01:16:26.021Z,98852.53
2022-10-25T01:19:30.816Z,98859.72
2022-10-25T01:22:20.847Z,98861.56
2022-10-25T01:25:03.097Z,98867.13
2022-10-25T01:28:00.345Z,98861.56
2022-10-25T01:30:57.300Z,98861.03
2022-10-25T01:33:40.514Z,98859.38
2022-10-25T01:36:27.715Z,98853.31
2022-10-25T01:39:25.020Z,98852.66
2022-10-25T01:42:13.065Z,98853.84
2022-10-25T01:45:04.256Z,98855.00
2022-10-25T01:47:48.315Z,98853.84
2022-10-25T01:50:21.976Z,98846.63
2022-10-25T01:52:48.518Z,98850.66
2022-10-25T01:55:15.419Z,98852.84
2022-10-25T01:58:01.587Z,98847.13
2022-10-25T02:00:33.622Z,98847.28
2022-10-25T02:03:27.935Z,98853.50
2022-10-25T02:06:22.464Z,98846.63
2022-10-25T02:08:59.369Z,98848.63
2022-10-25T02:11:29.237Z,98849.28
2022-10-25T02:14:13.683Z,98846.59
2022-10-25T02:16:46.012Z,98857.19
2022-10-25T02:19:17.945Z,98852.16
2022-10-25T02:21:48.618Z,98856.00
2022-10-25T02:24:21.250Z,98855.97
2022-10-25T02:29:23.739Z,98844.44
2022-10-25T02:31:50.437Z,98842.06
2022-10-25T02:34:18.296Z,98838.72
2022-10-25T02:36:49.064Z,98844.41
2022-10-25T02:39:16.320Z,98839.19
2022-10-25T02:41:42.692Z,98834.50
2022-10-25T02:44:09.132Z,98836.34
2022-10-25T02:46:35.559Z,98839.19
2022-10-25T02:49:01.902Z,98838.69
2022-10-25T02:51:28.348Z,98831.16
2022-10-25T02:53:54.892Z,98832.81
2022-10-25T02:56:22.059Z,98829.47
2022-10-25T02:58:51.088Z,98832.00
2022-10-25T03:01:19.874Z,98832.16
2022-10-25T03:03:46.817Z,98824.13
2022-10-25T03:06:14.260Z,98829.47
2022-10-25T03:08:41.748Z,98831.81
2022-10-25T03:11:09.508Z,98828.47
2022-10-25T03:13:36.249Z,98829.47
2022-10-25T03:16:02.969Z,98818.78
2022-10-25T03:18:29.524Z,98822.47
2022-10-25T03:20:56.700Z,98833.19
2022-10-25T03:23:23.509Z,98827.53
2022-10-25T03:25:54.256Z,98828.84
2022-10-25T03:28:21.756Z,98828.53
2022-10-25T03:30:48.377Z,98824.53
2022-10-25T03:33:15.145Z,98828.53
2022-10-25T03:35:41.564Z,98825.03
2022-10-25T03:38:08.048Z,98829.41
2022-10-25T03:40:34.567Z,98838.25
2022-10-25T03:43:01.141Z,98835.28
2022-10-25T03:45:27.487Z,98837.13
2022-10-25T03:47:53.894Z,98842.47
2022-10-25T03:50:20.372Z,98848.50
2022-10-25T03:52:46.796Z,98847.31
2022-10-25T03:55:13.302Z,98847.97
2022-10-25T03:57:39.669Z,98850.50
2022-10-25T04:00:06.686Z,98850.00
2022-10-25T04:02:38.238Z,98845.31
2022-10-25T04:05:04.899Z,98851.84
2022-10-25T04:07:31.378Z,98848.50
2022-10-25T04:09:57.732Z,98858.72
2022-10-25T04:12:24.139Z,98849.53
2022-10-25T04:14:50.603Z,98860.44
2022-10-25T04:17:17.076Z,98850.88
2022-10-25T04:19:43.483Z,98850.03
2022-10-25T04:22:12.386Z,98845.84
2022-10-25T04:24:38.876Z,98845.72
2022-10-25T04:27:05.318Z,98852.22
2022-10-25T04:29:31.765Z,98857.09
2022-10-25T04:31:58.137Z,98849.88
2022-10-25T04:34:24.556Z,98856.09
2022-10-25T04:36:50.948Z,98848.75
2022-10-25T04:39:17.424Z,98842.88
2022-10-25T04:41:43.931Z,98850.41
2022-10-25T04:44:10.339Z,98850.91
2022-10-25T04:46:36.724Z,98848.56
2022-10-25T04:49:04.561Z,98846.41
2022-10-25T04:51:31.028Z,98847.91
2022-10-25T04:53:57.464Z,98844.88
2022-10-25T04:56:23.935Z,98848.75
2022-10-25T04:58:50.353Z,98850.09
2022-10-25T05:01:18.415Z,98858.78
2022-10-25T05:03:45.304Z,98852.09
2022-10-25T05:06:17.734Z,98857.78
2022-10-25T05:08:47.003Z,98872.00
2022-10-25T05:11:15.278Z,98869.50
2022-10-25T05:13:42.880Z,98858.78
2022-10-25T05:16:14.364Z,98860.13
2022-10-25T05:18:42.775Z,98852.25
2022-10-25T05:21:09.684Z,98855.59
2022-10-25T05:23:36.301Z,98855.78
2022-10-25T05:26:04.524Z,98852.59
2022-10-25T05:28:31.808Z,98853.44
2022-10-25T05:31:01.946Z,98847.41
2022-10-25T05:33:28.457Z,98859.28
2022-10-25T05:35:54.860Z,98854.78
2022-10-25T05:38:21.252Z,98850.25
2022-10-25T05:40:53.733Z,98848.75
2022-10-25T05:43:20.490Z,98857.94
2022-10-25T05:45:46.953Z,98861.97
2022-10-25T05:48:13.457Z,98861.13
2022-10-25T05:53:11.768Z,98866.66
2022-10-25T05:55:38.277Z,98869.66
2022-10-25T05:58:04.606Z,98871.53
2022-10-25T06:00:31.114Z,98866.81
2022-10-25T06:02:59.934Z,98866.16
2022-10-25T06:05:26.300Z,98873.84
2022-10-25T06:07:52.794Z,98878.84
2022-10-25T06:10:19.217Z,98872.34
2022-10-25T06:12:45.913Z,98876.19
2022-10-25T06:15:12.827Z,98879.53
2022-10-25T06:17:40.491Z,98882.19
2022-10-25T06:20:07.972Z,98878.84
2022-10-25T06:22:34.411Z,98882.72
2022-10-25T06:25:00.944Z,98873.34
2022-10-25T06:27:28.082Z,98891.56
2022-10-25T06:29:54.492Z,98892.41
2022-10-25T06:32:20.888Z,98894.25
2022-10-25T06:34:47.287Z,98901.44
2022-10-25T06:37:15.328Z,98902.28
2022-10-25T06:39:41.771Z,98897.25
2022-10-25T06:42:08.234Z,98900.28
2022-10-25T06:44:34.662Z,98900.94
2022-10-25T06:47:17.972Z,98908.31
2022-10-25T06:49:45.752Z,98894.59
2022-10-25T06:52:12.125Z,98901.78
2022-10-25T06:54:38.576Z,98907.47
2022-10-25T06:57:05.158Z,98906.13
2022-10-25T06:59:31.805Z,98918.03
2022-10-25T07:01:58.320Z,98920.69
2022-10-25T07:04:24.813Z,98925.88
2022-10-25T07:06:54.381Z,98930.91
2022-10-25T07:09:21.849Z,98926.72
2022-10-25T07:11:48.406Z,98931.06
2022-10-25T07:14:14.793Z,98929.22
2022-10-25T07:16:43.868Z,98920.38
2022-10-25T07:19:10.897Z,98936.09
2022-10-25T07:21:37.350Z,98933.59
2022-10-25T07:24:04.447Z,98938.28
2022-10-25T07:26:34.489Z,98942.81
2022-10-25T07:29:03.525Z,98941.28
2022-10-25T07:31:39.583Z,98948.19
2022-10-25T07:34:06.697Z,98945.50
2022-10-25T07:36:34.047Z,98938.81
2022-10-25T07:39:02.580Z,98937.78
2022-10-25T07:41:30.805Z,98943.50
2022-10-25T07:44:00.170Z,98946.00
2022-10-25T07:46:26.589Z,98937.63
2022-10-25T07:48:52.985Z,98944.00
2022-10-25T07:51:20.094Z,98951.88
2022-10-25T07:53:47.043Z,98941.50
2022-10-25T07:56:18.861Z,98944.19
2022-10-25T07:58:48.872Z,98935.97
2022-10-25T08:01:27.305Z,98943.34
2022-10-25T08:03:55.240Z,98936.66
2022-10-25T08:06:25.415Z,98933.63
2022-10-25T08:08:54.158Z,98936.84
2022-10-25T08:11:20.668Z,98935.31
2022-10-25T08:13:51.284Z,98934.16
2022-10-25T08:16:18.110Z,98937.16
2022-10-25T08:18:44.568Z,98931.25
2022-10-25T08:21:11.166Z,98933.06
2022-10-25T08:23:37.517Z,98930.91
2022-10-25T08:26:04.101Z,98929.63
2022-10-25T08:28:33.167Z,98932.13
2022-10-25T08:31:01.262Z,98925.09
2022-10-25T08:33:28.631Z,98919.88
2022-10-25T08:35:55.121Z,98915.03
2022-10-25T08:38:21.617Z,98914.00
2022-10-25T08:41:01.873Z,98926.38
2022-10-25T08:43:56.254Z,98920.13
2022-10-25T08:46:34.951Z,98901.03
2022-10-25T08:49:11.549Z,98910.78
2022-10-25T08:51:42.233Z,98905.44
2022-10-25T08:54:23.950Z,98914.19
2022-10-25T08:57:15.068Z,98912.53
2022-10-25T08:59:45.463Z,98908.03
2022-10-25T09:02:39.490Z,98917.78
2022-10-25T09:05:50.166Z,98920.56
2022-10-25T09:08:22.589Z,98912.38
2022-10-25T09:11:29.987Z,98909.53
2022-10-25T09:14:40.762Z,98908.16
2022-10-25T09:17:21.739Z,98912.28
2022-10-25T09:20:05.268Z,98914.19
2022-10-25T09:22:45.063Z,98908.91
2022-10-25T09:25:23.009Z,98909.66
2022-10-25T09:28:03.619Z,98912.44
2022-10-25T09:30:37.493Z,98912.16
2022-10-25T09:33:10.381Z,98906.16
2022-10-25T09:35:42.956Z,98910.91
2022-10-25T09:38:14.977Z,98910.56
2022-10-25T09:40:49.787Z,98904.41
2022-10-25T09:43:25.745Z,98899.81
2022-10-25T09:45:56.929Z,98903.63
2022-10-25T09:48:33.453Z,98905.19
2022-10-25T09:51:43.155Z,98900.75
2022-10-25T09:54:32.991Z,98901.53
2022-10-25T09:56:59.476Z,98898.78
2022-10-25T09:59:28.021Z,98899.94
2022-10-25T10:01:54.885Z,98900.47
2022-10-25T10:04:33.120Z,98897.25
2022-10-25T10:07:07.029Z,98893.38
2022-10-25T10:09:41.047Z,98896.06
2022-10-25T10:12:36.738Z,98894.50
2022-10-25T10:15:20.660Z,98890.38
2022-10-25T10:17:47.412Z,98893.66
2022-10-25T10:20:17.017Z,98889.88
2022-10-25T10:22:46.505Z,98896.53
2022-10-25T10:25:30.899Z,98888.66
2022-10-25T10:27:58.026Z,98885.53
2022-10-25T10:30:28.756Z,98877.69
2022-10-25T10:32:59.571Z,98877.53
2022-10-25T10:35:32.799Z,98876.63
2022-10-25T10:38:22.606Z,98882.34
2022-10-25T10:40:51.845Z,98877.78
2022-10-25T10:43:32.426Z,98874.63
2022-10-25T10:46:05.955Z,98877.72
2022-10-25T10:48:40.323Z,98872.16
2022-10-25T10:51:25.198Z,98870.63
2022-10-25T10:53:57.069Z,98864.19
2022-10-25T10:56:23.694Z,98865.22
2022-10-25T10:58:53.453Z,98861.38
2022-10-25T11:01:33.513Z,98856.66
2022-10-25T11:04:01.412Z,98856.97
2022-10-25T11:06:33.839Z,98860.47
2022-10-25T11:09:12.555Z,98858.38
2022-10-25T11:11:40.421Z,98861.16
2022-10-25T11:14:17.282Z,98852.13
2022-10-25T11:16:58.587Z,98857.47
2022-10-25T11:19:31.005Z,98851.81
2022-10-25T11:22:11.465Z,98841.19
2022-10-25T11:24:53.821Z,98848.00
2022-10-25T11:27:58.014Z,98841.03
2022-10-25T11:30:29.333Z,98842.09
2022-10-25T11:33:13.019Z,98841.06
2022-10-25T11:36:02.052Z,98843.47
2022-10-25T11:38:37.638Z,98832.63
2022-10-25T11:41:41.193Z,98835.44
2022-10-25T11:44:18.644Z,98837.25
2022-10-25T11:47:18.609Z,98841.06
2022-10-25T11:50:02.714Z,98829.41
2022-10-25T11:52:41.234Z,98831.63
2022-10-25T11:55:25.691Z,98828.75
2022-10-25T11:58:07.952Z,98825.94
2022-10-25T12:00:57.432Z,98830.13
2022-10-25T12:03:49.025Z,98818.03
2022-10-25T12:06:20.890Z,98819.63
2022-10-25T12:09:12.162Z,98816.56
2022-10-25T12:11:46.910Z,98815.06
2022-10-25T12:14:19.197Z,98813.94
2022-10-25T12:16:46.369Z,98808.50
2022-10-25T12:19:25.708Z,98806.16
2022-10-25T12:21:59.292Z,98798.97
2022-10-25T12:24:43.945Z,98806.94
2022-10-25T12:27:13.172Z,98810.56
2022-10-25T12:29:44.105Z,98809.78
2022-10-25T12:32:18.725Z,98807.34
2022-10-25T12:34:49.896Z,98808.34
2022-10-25T12:37:51.297Z,98804.47
2022-10-25T12:43:15.253Z,98796.16
2022-10-25T12:46:09.782Z,98796.38
2022-10-25T12:49:12.596Z,98808.13
2022-10-25T12:51:57.730Z,98800.84
2022-10-25T12:54:24.316Z,98793.50
2022-10-25T12:57:02.866Z,98805.47
2022-10-25T12:59:44.472Z,98796.31
2022-10-25T13:02:45.245Z,98803.59
2022-10-25T13:05:28.078Z,98798.97
2022-10-25T13:08:00.413Z,98803.09
2022-10-25T13:10:27.263Z,98800.81
2022-10-25T13:13:03.150Z,98796.50
2022-10-25T13:15:46.489Z,98797.06
2022-10-25T13:18:31.571Z,98797.72
2022-10-25T13:21:03.827Z,98792.69
2022-10-25T13:23:42.335Z,98788.72
2022-10-25T13:26:14.598Z,98792.94
2022-10-25T13:28:53.220Z,98785.69
2022-10-25T13:31:33.579Z,98777.69
2022-10-25T13:34:12.152Z,98777.94
2022-10-25T13:36:56.005Z,98780.22
2022-10-25T13:39:28.448Z,98774.38
2022-10-25T13:42:16.487Z,98774.66
2022-10-25T13:45:05.357Z,98760.31
2022-10-25T13:47:43.384Z,98760.03
2022-10-25T13:50:33.237Z,98750.28
2022-10-25T13:53:05.738Z,98765.31
2022-10-25T13:55:38.193Z,98765.94
2022-10-25T13:58:34.579Z,98760.59
2022-10-25T14:01:21.312Z,98756.91
2022-10-25T14:04:38.270Z,98750.44
2022-10-25T14:07:45.951Z,98760.47
2022-10-25T14:10:27.854Z,98756.81
2022-10-25T14:13:01.416Z,98753.31
2022-10-25T14:15:41.539Z,98750.22
2022-10-25T14:18:16.384Z,98748.56
2022-10-25T14:20:47.020Z,98743.88
2022-10-25T14:23:20.590Z,98753.22
2022-10-25T14:26:04.071Z,98750.59
2022-10-25T14:28:33.299Z,98750.84
2022-10-25T14:31:05.585Z,98739.00
2022-10-25T14:33:41.870Z,98740.63
2022-10-25T14:36:17.047Z,98735.59
2022-10-25T14:39:04.468Z,98744.28
2022-10-25T14:41:33.538Z,98736.56
2022-10-25T14:44:00.941Z,98726.91
2022-10-25T14:46:30.121Z,98728.19
2022-10-25T14:48:59.658Z,98732.22
2022-10-25T14:51:26.697Z,98728.28
2022-10-25T14:53:58.793Z,98738.00
2022-10-25T14:56:37.412Z,98740.03
2022-10-25T14:59:06.927Z,98731.44
2022-10-25T15:01:34.255Z,98732.84
2022-10-25T15:04:01.261Z,98737.47
2022-10-25T15:06:30.946Z,98738.31
2022-10-25T15:09:29.049Z,98738.59
2022-10-25T15:12:07.109Z,98731.81
2022-10-25T15:14:34.179Z,98736.94
2022-10-25T15:17:02.300Z,98735.34
2022-10-25T15:19:28.889Z,98745.38
2022-10-25T15:22:07.286Z,98736.50
2022-10-25T15:24:44.953Z,98734.63
2022-10-25T15:27:26.783Z,98734.81
2022-10-25T15:29:53.843Z,98728.94
2022-10-25T15:32:27.457Z,98741.28
2022-10-25T15:34:58.792Z,98727.47
2022-10-25T15:37:27.082Z,98730.91
2022-10-25T15:39:55.377Z,98730.56
2022-10-25T15:42:25.318Z,98738.66
2022-10-25T15:44:52.030Z,98736.81
2022-10-25T15:47:29.035Z,98732.69
2022-10-25T15:49:55.656Z,98726.44
2022-10-25T15:52:22.723Z,98721.06
2022-10-25T15:54:49.590Z,98721.88
2022-10-25T15:57:16.725Z,98719.38
2022-10-25T15:59:43.581Z,98726.88
2022-10-25T16:02:23.328Z,98728.97
2022-10-25T16:04:49.825Z,98722.97
2022-10-25T16:07:16.408Z,98722.31
2022-10-25T16:09:43.476Z,98717.78
2022-10-25T16:12:21.816Z,98724.16
2022-10-25T16:14:49.937Z,98722.94
2022-10-25T16:17:16.318Z,98723.31
2022-10-25T16:19:42.749Z,98716.22
2022-10-25T16:22:09.297Z,98717.66
2022-10-25T16:24:35.731Z,98717.63
2022-10-25T16:27:02.125Z,98714.94
2022-10-25T16:29:29.688Z,98723.03
2022-10-25T16:31:56.182Z,98723.88
2022-10-25T16:34:22.642Z,98712.88
2022-10-25T16:36:50.436Z,98713.66
2022-10-25T16:39:17.431Z,98713.84
2022-10-25T16:41:45.526Z,98714.25
2022-10-25T16:44:13.543Z,98715.03
2022-10-25T16:46:40.076Z,98703.81
2022-10-25T16:49:06.720Z,98715.88
2022-10-25T16:51:34.650Z,98697.38
2022-10-25T16:54:01.735Z,98697.94
2022-10-25T16:56:28.391Z,98698.34
2022-10-25T16:58:54.832Z,98689.22
2022-10-25T17:01:34.115Z,98690.19
2022-10-25T17:04:02.147Z,98688.28
2022-10-25T17:06:40.678Z,98691.22
2022-10-25T17:09:07.671Z,98691.75
2022-10-25T17:11:34.496Z,98686.09
2022-10-25T17:14:01.116Z,98685.06
2022-10-25T17:16:27.498Z,98680.28
2022-10-25T17:18:54.126Z,98674.91
2022-10-25T17:21:20.628Z,98686.03
2022-10-25T17:23:47.284Z,98688.53
2022-10-25T17:26:13.975Z,98690.34
2022-10-25T17:28:43.970Z,98701.69
2022-10-25T17:31:13.143Z,98698.28
2022-10-25T17:33:40.551Z,98705.41
2022-10-25T17:36:13.021Z,98704.22
2022-10-25T17:38:40.125Z,98708.34
2022-10-25T17:41:07.525Z,98700.00
2022-10-25T17:43:35.192Z,98709.91
2022-10-25T17:46:04.157Z,98711.31
2022-10-25T17:48:31.180Z,98723.31
2022-10-25T17:51:03.772Z,98713.38
2022-10-25T17:53:30.338Z,98717.28
2022-10-25T17:55:56.937Z,98720.09
2022-10-25T17:58:23.842Z,98725.88
2022-10-25T18:00:50.457Z,98720.69
2022-10-25T18:03:17.007Z,98725.25
2022-10-25T18:05:43.340Z,98716.72
2022-10-25T18:08:09.799Z,98713.00
2022-10-25T18:10:36.334Z,98707.88
2022-10-25T18:13:02.764Z,98718.44
2022-10-25T18:15:29.323Z,98720.75
2022-10-25T18:17:55.730Z,98708.44
2022-10-25T18:20:25.257Z,98715.44
2022-10-25T18:22:53.233Z,98712.38
2022-10-25T18:25:19.846Z,98703.06
2022-10-25T18:27:46.834Z,98703.78
2022-10-25T18:30:14.193Z,98703.66
2022-10-25T18:32:40.928Z,98701.22
2022-10-25T18:35:07.844Z,98695.19
2022-10-25T18:37:34.609Z,98695.84
2022-10-25T18:40:01.256Z,98698.00
2022-10-25T18:42:28.014Z,98698.81
2022-10-25T18:44:55.631Z,98700.97
2022-10-25T18:47:22.528Z,98691.22
2022-10-25T18:49:49.002Z,98681.84
2022-10-25T18:52:15.410Z,98676.00
2022-10-25T18:54:41.884Z,98673.78
2022-10-25T18:57:08.455Z,98666.50
2022-10-25T18:59:35.305Z,98667.38
2022-10-25T19:02:02.366Z,98656.13
2022-10-25T19:04:29.961Z,98658.00
2022-10-25T19:06:58.095Z,98652.75
2022-10-25T19:09:26.396Z,98656.47
2022-10-25T19:11:53.751Z,98649.72
2022-10-25T19:14:21.386Z,98638.66
2022-10-25T19:16:49.177Z,98640.91
2022-10-25T19:19:17.395Z,98641.22
2022-10-25T19:21:46.664Z,98641.09
2022-10-25T19:24:17.039Z,98637.75
2022-10-25T19:26:45.172Z,98636.25
2022-10-25T19:29:12.759Z,98646.84
2022-10-25T19:31:52.757Z,98637.09
2022-10-25T19:34:20.363Z,98614.25
2022-10-25T19:36:48.618Z,98630.16
2022-10-25T19:39:16.416Z,98643.56
2022-10-25T19:41:46.331Z,98639.28
2022-10-25T19:44:13.990Z,98640.72
2022-10-25T19:46:44.547Z,98630.97
2022-10-25T19:49:12.383Z,98627.63
2022-10-25T19:51:39.693Z,98618.91
2022-10-25T19:54:07.145Z,98613.66
2022-10-25T19:56:37.467Z,98615.56
2022-10-25T19:59:07.466Z,98613.84
2022-10-25T20:01:34.368Z,98615.72
2022-10-25T20:04:01.630Z,98604.69
2022-10-25T20:06:32.180Z,98608.03
2022-10-25T20:09:00.888Z,98606.59
2022-10-25T20:11:29.468Z,98593.28
2022-10-25T20:13:58.828Z,98595.09
2022-10-25T20:16:27.006Z,98592.66
2022-10-25T20:18:54.779Z,98585.34
2022-10-25T20:21:27.474Z,98580.81
2022-10-25T20:23:59.900Z,98581.25
2022-10-25T20:26:32.160Z,98582.63
2022-10-25T20:29:01.292Z,98588.03
2022-10-25T20:31:30.344Z,98588.38
2022-10-25T20:33:57.724Z,98588.25
2022-10-25T20:36:25.470Z,98587.47
2022-10-25T20:38:52.970Z,98587.00
2022-10-25T20:41:24.848Z,98591.97
2022-10-25T20:43:55.029Z,98584.06
2022-10-25T20:46:24.906Z,98580.75
2022-10-25T20:48:52.187Z,98579.72
2022-10-25T20:51:19.528Z,98597.13
2022-10-25T20:53:46.744Z,98582.03
2022-10-25T20:56:13.329Z,98587.66
2022-10-25T20:58:39.698Z,98590.56
2022-10-25T21:01:06.298Z,98588.53
2022-10-25T21:03:33.170Z,98582.72
2022-10-25T21:06:03.221Z,98592.22
2022-10-25T21:08:30.653Z,98592.59
2022-10-25T21:11:02.674Z,98598.16
2022-10-25T21:13:30.958Z,98596.13
2022-10-25T21:15:57.812Z,98597.38
2022-10-25T21:18:28.445Z,98597.63
2022-10-25T21:21:01.025Z,98595.34
2022-10-25T21:23:27.640Z,98595.09
2022-10-25T21:25:57.824Z,98589.78
2022-10-25T21:28:24.451Z,98584.78
2022-10-25T21:30:51.173Z,98588.44
2022-10-25T21:33:17.564Z,98585.47
2022-10-25T21:35:43.966Z,98586.50
2022-10-25T21:38:10.432Z,98581.53
2022-10-25T21:40:36.816Z,98585.88
2022-10-25T21:43:03.230Z,98582.78
2022-10-25T21:45:29.625Z,98573.44
2022-10-25T21:47:56.040Z,98574.78
2022-10-25T21:50:22.520Z,98574.28
2022-10-25T21:52:48.811Z,98582.75
2022-10-25T21:55:15.263Z,98570.50
2022-10-25T21:57:41.699Z,98575.75
2022-10-25T22:00:08.970Z,98571.78
2022-10-25T22:02:39.381Z,98565.19
2022-10-25T22:05:06.180Z,98564.34
2022-10-25T22:07:32.460Z,98563.13
2022-10-25T22:09:59.062Z,98561.16
2022-10-25T22:12:25.396Z,98558.91
2022-10-25T22:14:51.905Z,98553.28
2022-10-25T22:17:18.389Z,98557.50
2022-10-25T22:19:44.741Z,98560.75
2022-10-25T22:22:11.107Z,98563.84
2022-10-25T22:24:37.490Z,98565.91
2022-10-25T22:27:04.323Z,98549.13
2022-10-25T22:29:30.834Z,98543.16
2022-10-25T22:31:57.291Z,98540.25
2022-10-25T22:34:23.885Z,98548.41
2022-10-25T22:36:50.262Z,98543.03
2022-10-25T22:39:16.760Z,98549.38
2022-10-25T22:41:43.116Z,98549.22
2022-10-25T22:44:09.554Z,98554.47
2022-10-25T22:46:36.462Z,98548.59
2022-10-25T22:49:08.671Z,98551.53
2022-10-25T22:51:36.272Z,98550.31
2022-10-25T22:54:02.860Z,98547.41
2022-10-25T22:56:30.535Z,98556.09
2022-10-25T22:58:59.650Z,98551.13
2022-10-25T23:01:28.825Z,98551.53
2022-10-25T23:03:57.021Z,98553.41
2022-10-25T23:06:26.349Z,98555.69
2022-10-25T23:08:54.556Z,98558.19
2022-10-25T23:11:26.452Z,98563.06
2022-10-25T23:13:53.096Z,98561.16
2022-10-25T23:16:19.787Z,98575.31
2022-10-25T23:18:46.669Z,98587.09
2022-10-25T23:21:18.653Z,98595.56
2022-10-25T23:23:46.334Z,98591.97
2022-10-25T23:26:18.421Z,98598.25
2022-10-25T23:28:44.880Z,98591.13
2022-10-25T23:31:14.113Z,98590.56
2022-10-25T23:33:41.649Z,98584.44
2022-10-25T23:36:12.157Z,98582.41
2022-10-25T23:38:38.719Z,98599.50
2022-10-25T23:41:06.291Z,98592.84
2022-10-25T23:43:33.921Z,98596.91
2022-10-25T23:46:00.638Z,98601.50
2022-10-25T23:48:27.264Z,98589.47
2022-10-25T23:50:57.854Z,98581.97
2022-10-25T23:53:24.757Z,98576.97
2022-10-25T23:55:52.098Z,98571.34
2022-10-25T23:58:18.654Z,98582.03
